Time;durP1;ratioP1;P1;durP2;ratioP2;P2;SDS_P1;SDS_P2;PMS_P1;PMS_P2;Temp;Humidity;BMP_temperature;BMP_pressure;BME280_temperature;BME280_humidity;BME280_pressure;Samples;Min_cycle;Max_cycle;Signal;HPM_P1;HPM_P2
2023/09/06 00:02:09;;;;;;;11.13;4.78;;;;;;;;;;5073379;28;20655;-54
2023/09/06 00:04:36;;;;;;;9.77;5.93;;;;;;;;;;5073423;28;20203;-55
2023/09/06 00:07:03;;;;;;;6.63;4.68;;;;;;;;;;5073439;28;20227;-56
2023/09/06 00:09:31;;;;;;;7.10;4.95;;;;;;;;;;5072983;28;20245;-54
2023/09/06 00:11:57;;;;;;;9.43;5.43;;;;;;;;;;5073523;28;20203;-57
2023/09/06 00:14:29;;;;;;;10.93;5.22;;;;;;;;;;5073021;28;20234;-57
2023/09/06 00:16:56;;;;;;;7.65;4.53;;;;;;;;;;5073250;28;20214;-56
2023/09/06 00:19:24;;;;;;;7.00;4.72;;;;;;;;;;5073556;28;20210;-58
2023/09/06 00:21:51;;;;;;;6.68;4.15;;;;;;;;;;5073381;28;20223;-57
2023/09/06 00:24:19;;;;;;;8.00;4.68;;;;;;;;;;5072190;28;20207;-55
2023/09/06 00:26:46;;;;;;;8.18;5.10;;;;;;;;;;5073254;28;20254;-57
2023/09/06 00:29:14;;;;;;;8.65;4.80;;;;;;;;;;5073051;28;20210;-53
2023/09/06 00:31:41;;;;;;;9.15;5.18;;;;;;;;;;5072937;28;20207;-58
2023/09/06 00:34:08;;;;;;;12.70;6.13;;;;;;;;;;5073279;28;20214;-56
2023/09/06 00:36:35;;;;;;;10.73;7.10;;;;;;;;;;5073145;28;20282;-56
2023/09/06 00:39:05;;;;;;;11.98;6.82;;;;;;;;;;5073260;28;20207;-57
2023/09/06 00:41:32;;;;;;;14.57;7.68;;;;;;;;;;5072933;28;20203;-55
2023/09/06 00:43:59;;;;;;;13.70;8.73;;;;;;;;;;5071812;28;20210;-55
2023/09/06 00:46:26;;;;;;;12.05;8.13;;;;;;;;;;5071695;28;20695;-54
2023/09/06 00:48:55;;;;;;;13.48;7.53;;;;;;;;;;5071689;28;20655;-57
2023/09/06 00:51:22;;;;;;;12.88;7.97;;;;;;;;;;5073022;28;20203;-55
2023/09/06 00:53:50;;;;;;;16.05;8.82;;;;;;;;;;5071934;28;20207;-57
2023/09/06 00:56:17;;;;;;;14.27;7.35;;;;;;;;;;5073164;28;20282;-52
2023/09/06 00:58:45;;;;;;;13.20;7.07;;;;;;;;;;5071948;28;20211;-56
2023/09/06 01:01:12;;;;;;;15.10;7.78;;;;;;;;;;5073070;28;20203;-57
2023/09/06 01:03:40;;;;;;;12.65;8.30;;;;;;;;;;5072819;28;20210;-55
2023/09/06 01:06:16;;;;;;;15.35;8.52;;;;;;;;;;5071717;28;20227;-57
2023/09/06 01:08:47;;;;;;;17.08;9.10;;;;;;;;;;5055246;28;20593;-56
2023/09/06 01:11:19;;;;;;;13.15;7.45;;;;;;;;;;5055158;28;20207;-56
2023/09/06 01:13:53;;;;;;;12.65;7.03;;;;;;;;;;5072842;28;20586;-59
2023/09/06 01:16:28;;;;;;;11.60;7.43;;;;;;;;;;5072934;28;20231;-56
2023/09/06 01:18:56;;;;;;;11.43;7.30;;;;;;;;;;5072932;28;20183;-56
2023/09/06 01:21:26;;;;;;;14.60;8.57;;;;;;;;;;5072555;28;20210;-57
2023/09/06 01:23:54;;;;;;;13.73;8.52;;;;;;;;;;5076354;28;20199;-59
2023/09/06 01:26:21;;;;;;;13.80;9.20;;;;;;;;;;5076458;28;20219;-56
2023/09/06 01:28:49;;;;;;;16.13;8.57;;;;;;;;;;5074942;28;20207;-58
2023/09/06 01:31:16;;;;;;;13.32;8.52;;;;;;;;;;5075323;28;20195;-57
2023/09/06 01:33:44;;;;;;;15.57;8.95;;;;;;;;;;5074764;28;20203;-56
2023/09/06 01:36:11;;;;;;;17.65;9.40;;;;;;;;;;5053776;28;20201;-57
2023/09/06 01:38:39;;;;;;;17.52;9.63;;;;;;;;;;5053781;28;20675;-56
2023/09/06 01:41:06;;;;;;;13.48;8.48;;;;;;;;;;5053848;28;20291;-55
2023/09/06 01:43:33;;;;;;;12.93;7.95;;;;;;;;;;5053749;28;20204;-57
2023/09/06 01:46:00;;;;;;;15.20;8.77;;;;;;;;;;5053407;28;20314;-54
2023/09/06 01:48:28;;;;;;;16.95;9.07;;;;;;;;;;5052229;28;20610;-56
2023/09/06 01:50:56;;;;;;;12.65;8.55;;;;;;;;;;5051131;28;20208;-53
2023/09/06 01:53:23;;;;;;;12.60;8.63;;;;;;;;;;5051669;28;20242;-54
2023/09/06 01:55:50;;;;;;;10.98;7.88;;;;;;;;;;5034564;28;20631;-57
2023/09/06 01:58:18;;;;;;;12.80;8.15;;;;;;;;;;5051084;28;20652;-54
2023/09/06 02:00:45;;;;;;;10.27;7.07;;;;;;;;;;5034426;28;20204;-56
2023/09/06 02:03:18;;;;;;;14.73;7.18;;;;;;;;;;5050846;28;20231;-59
2023/09/06 02:05:45;;;;;;;13.45;6.60;;;;;;;;;;5051048;28;20633;-57
2023/09/06 02:08:13;;;;;;;10.45;6.70;;;;;;;;;;5053074;28;20703;-56
2023/09/06 02:10:40;;;;;;;14.13;6.93;;;;;;;;;;5053482;28;20254;-56
2023/09/06 02:13:08;;;;;;;11.40;6.80;;;;;;;;;;5054193;28;20208;-56
2023/09/06 02:15:35;;;;;;;10.25;7.07;;;;;;;;;;5055035;28;20232;-56
2023/09/06 02:18:02;;;;;;;12.38;6.80;;;;;;;;;;5063070;28;20204;-56
2023/09/06 02:20:30;;;;;;;10.25;6.70;;;;;;;;;;5075257;28;20264;-55
2023/09/06 02:22:57;;;;;;;11.30;6.32;;;;;;;;;;5074084;28;20214;-55
2023/09/06 02:25:29;;;;;;;12.02;7.20;;;;;;;;;;5075161;28;20206;-54
2023/09/06 02:28:03;;;;;;;9.57;6.03;;;;;;;;;;5075204;28;20215;-55
2023/09/06 02:30:32;;;;;;;10.88;6.57;;;;;;;;;;5075073;28;20548;-56
2023/09/06 02:33:00;;;;;;;12.88;6.72;;;;;;;;;;5074988;28;20210;-53
2023/09/06 02:35:27;;;;;;;8.38;6.07;;;;;;;;;;5075016;28;20264;-57
2023/09/06 02:37:54;;;;;;;10.98;7.05;;;;;;;;;;5073493;28;20592;-55
2023/09/06 02:40:22;;;;;;;10.00;5.78;;;;;;;;;;5074712;28;20686;-59
2023/09/06 02:42:51;;;;;;;15.77;7.03;;;;;;;;;;5074533;28;20210;-56
2023/09/06 02:45:18;;;;;;;10.30;6.72;;;;;;;;;;5074622;28;20203;-53
2023/09/06 02:47:49;;;;;;;12.38;7.88;;;;;;;;;;5073519;28;20231;-55
2023/09/06 02:50:23;;;;;;;10.77;6.18;;;;;;;;;;5074567;28;20660;-58
2023/09/06 02:52:53;;;;;;;11.52;7.95;;;;;;;;;;5074533;28;20549;-54
2023/09/06 02:55:21;;;;;;;11.73;7.28;;;;;;;;;;5074379;28;20659;-56
2023/09/06 02:57:52;;;;;;;12.27;8.15;;;;;;;;;;5073376;28;20207;-56
2023/09/06 03:00:25;;;;;;;12.63;7.78;;;;;;;;;;5074528;28;20587;-56
2023/09/06 03:03:06;;;;;;;11.68;6.68;;;;;;;;;;5074250;28;20694;-55
2023/09/06 03:05:41;;;;;;;12.00;6.88;;;;;;;;;;5073153;28;20195;-55
2023/09/06 03:08:13;;;;;;;10.13;6.40;;;;;;;;;;5073236;28;20219;-55
2023/09/06 03:10:41;;;;;;;14.13;7.00;;;;;;;;;;5073041;28;20324;-53
2023/09/06 03:13:09;;;;;;;13.65;7.05;;;;;;;;;;5072960;28;20210;-56
2023/09/06 03:15:40;;;;;;;12.90;7.57;;;;;;;;;;5072926;28;20322;-58
2023/09/06 03:18:12;;;;;;;11.18;6.68;;;;;;;;;;5072555;28;20222;-56
2023/09/06 03:20:45;;;;;;;10.70;5.75;;;;;;;;;;5072848;28;20207;-56
2023/09/06 03:23:24;;;;;;;10.05;6.85;;;;;;;;;;5058496;28;20203;-55
2023/09/06 03:25:57;;;;;;;8.38;5.88;;;;;;;;;;5072566;28;20200;-56
2023/09/06 03:28:31;;;;;;;9.95;6.47;;;;;;;;;;5072216;28;20222;-57
2023/09/06 03:31:00;;;;;;;12.38;6.30;;;;;;;;;;5073480;28;20204;-57
2023/09/06 03:33:29;;;;;;;9.90;6.07;;;;;;;;;;5072316;28;20207;-58
2023/09/06 03:35:56;;;;;;;9.18;6.05;;;;;;;;;;5072313;28;20617;-57
2023/09/06 03:38:25;;;;;;;9.98;6.70;;;;;;;;;;5072258;28;20207;-54
2023/09/06 03:40:55;;;;;;;10.43;6.22;;;;;;;;;;5073429;28;20639;-57
2023/09/06 03:43:30;;;;;;;9.45;6.68;;;;;;;;;;5073323;28;20203;-57
2023/09/06 03:46:04;;;;;;;11.35;6.00;;;;;;;;;;5071850;28;20198;-55
2023/09/06 03:48:34;;;;;;;12.45;6.57;;;;;;;;;;5073253;28;20231;-59
2023/09/06 03:51:03;;;;;;;11.48;6.70;;;;;;;;;;5072071;28;20218;-56
2023/09/06 03:53:31;;;;;;;13.30;6.88;;;;;;;;;;5073312;28;20207;-56
2023/09/06 03:56:00;;;;;;;11.90;6.35;;;;;;;;;;5066957;28;20668;-56
2023/09/06 03:58:48;;;;;;;13.93;7.15;;;;;;;;;;5060415;28;20231;-59
2023/09/06 04:01:15;;;;;;;12.13;7.15;;;;;;;;;;5070788;28;20234;-59
2023/09/06 04:03:50;;;;;;;11.90;7.93;;;;;;;;;;5071099;28;20238;-57
2023/09/06 04:06:19;;;;;;;11.48;7.18;;;;;;;;;;5058372;28;20310;-53
2023/09/06 04:08:47;;;;;;;9.93;6.57;;;;;;;;;;5058260;28;20236;-54
2023/09/06 04:11:16;;;;;;;12.63;6.70;;;;;;;;;;5071121;28;20250;-56
2023/09/06 04:13:44;;;;;;;8.00;5.32;;;;;;;;;;5058893;28;20255;-54
2023/09/06 04:16:14;;;;;;;12.20;6.03;;;;;;;;;;5055376;28;20235;-57
2023/09/06 04:18:42;;;;;;;9.15;5.53;;;;;;;;;;5070799;28;20223;-53
2023/09/06 04:21:10;;;;;;;10.77;6.03;;;;;;;;;;5067936;28;20615;-52
2023/09/06 04:23:40;;;;;;;9.38;5.95;;;;;;;;;;5060508;28;20224;-55
2023/09/06 04:26:10;;;;;;;11.85;6.72;;;;;;;;;;5051400;28;20702;-54
2023/09/06 04:28:37;;;;;;;12.32;5.63;;;;;;;;;;5050712;28;20239;-54
2023/09/06 04:31:08;;;;;;;14.50;6.13;;;;;;;;;;5051205;28;20223;-53
2023/09/06 04:33:41;;;;;;;8.40;5.78;;;;;;;;;;5051273;28;20234;-53
2023/09/06 04:36:25;;;;;;;13.40;6.78;;;;;;;;;;5050943;28;20224;-58
2023/09/06 04:38:58;;;;;;;9.23;6.25;;;;;;;;;;5051275;28;20223;-58
2023/09/06 04:41:26;;;;;;;14.30;6.78;;;;;;;;;;5068668;28;20223;-56
2023/09/06 04:43:58;;;;;;;11.02;6.63;;;;;;;;;;5070890;28;20223;-55
2023/09/06 04:46:27;;;;;;;17.88;7.03;;;;;;;;;;5070132;28;20228;-56
2023/09/06 04:48:55;;;;;;;16.45;8.77;;;;;;;;;;5072119;28;20296;-56
2023/09/06 04:51:23;;;;;;;17.00;7.38;;;;;;;;;;5070825;28;20310;-55
2023/09/06 04:53:51;;;;;;;14.48;7.63;;;;;;;;;;5064826;28;20219;-56
2023/09/06 04:56:25;;;;;;;11.80;7.07;;;;;;;;;;5052874;28;20219;-55
2023/09/06 04:58:53;;;;;;;15.18;6.15;;;;;;;;;;5072371;28;20234;-56
2023/09/06 05:01:20;;;;;;;13.00;6.47;;;;;;;;;;5072924;28;20722;-58
2023/09/06 05:03:47;;;;;;;12.98;6.25;;;;;;;;;;5073651;28;20219;-54
2023/09/06 05:06:15;;;;;;;13.57;6.25;;;;;;;;;;5073789;28;20227;-55
2023/09/06 05:08:43;;;;;;;12.05;6.68;;;;;;;;;;5073716;28;20235;-58
2023/09/06 05:11:17;;;;;;;10.15;6.47;;;;;;;;;;5073933;28;20223;-55
2023/09/06 05:13:48;;;;;;;11.27;6.00;;;;;;;;;;5073830;28;20235;-56
2023/09/06 05:16:17;;;;;;;10.18;5.78;;;;;;;;;;5074310;28;20697;-57
2023/09/06 05:18:44;;;;;;;9.95;5.97;;;;;;;;;;5074891;28;20200;-57
2023/09/06 05:21:17;;;;;;;11.05;6.50;;;;;;;;;;5074561;28;20257;-56
2023/09/06 05:23:45;;;;;;;9.65;6.72;;;;;;;;;;5075378;28;20672;-54
2023/09/06 05:26:12;;;;;;;10.45;6.88;;;;;;;;;;5076010;28;20207;-56
2023/09/06 05:28:43;;;;;;;8.52;5.97;;;;;;;;;;5073494;28;20600;-56
2023/09/06 05:31:12;;;;;;;14.18;6.55;;;;;;;;;;5073182;28;20210;-52
2023/09/06 05:33:43;;;;;;;13.25;5.82;;;;;;;;;;5073295;28;20187;-58
2023/09/06 05:36:12;;;;;;;9.45;5.47;;;;;;;;;;5073331;28;20249;-59
2023/09/06 05:38:41;;;;;;;9.88;5.80;;;;;;;;;;5073094;28;20208;-54
2023/09/06 05:41:09;;;;;;;12.38;5.47;;;;;;;;;;5073324;28;20246;-52
2023/09/06 05:43:41;;;;;;;14.57;6.28;;;;;;;;;;5074063;28;20257;-50
2023/09/06 05:46:09;;;;;;;9.63;5.47;;;;;;;;;;5091407;28;20226;-55
2023/09/06 05:48:57;;;;;;;12.15;6.57;;;;;;;;;;5074575;28;20237;-56
2023/09/06 05:51:28;;;;;;;9.05;5.68;;;;;;;;;;5091734;28;20238;-56
2023/09/06 05:53:58;;;;;;;9.60;5.43;;;;;;;;;;5074756;28;20212;-59
2023/09/06 05:56:27;;;;;;;10.13;6.05;;;;;;;;;;5074599;28;20249;-50
2023/09/06 05:58:54;;;;;;;9.02;5.85;;;;;;;;;;5074372;28;20260;-53
2023/09/06 06:01:21;;;;;;;12.25;5.95;;;;;;;;;;5074486;28;20199;-50
2023/09/06 06:03:49;;;;;;;10.88;6.10;;;;;;;;;;5074456;28;20212;-52
2023/09/06 06:06:17;;;;;;;16.00;6.82;;;;;;;;;;5075900;28;20311;-54
2023/09/06 06:08:44;;;;;;;11.82;6.53;;;;;;;;;;5074945;28;20222;-57
2023/09/06 06:11:11;;;;;;;11.02;6.75;;;;;;;;;;5075264;28;20195;-54
2023/09/06 06:13:39;;;;;;;10.60;6.75;;;;;;;;;;5074992;28;20261;-53
2023/09/06 06:16:06;;;;;;;12.70;7.05;;;;;;;;;;5075438;28;20195;-54
2023/09/06 06:18:35;;;;;;;13.88;7.57;;;;;;;;;;5075486;28;20215;-56
2023/09/06 06:21:03;;;;;;;14.48;6.65;;;;;;;;;;5075128;28;20203;-55
2023/09/06 06:23:31;;;;;;;10.95;7.13;;;;;;;;;;5075011;28;20252;-52
2023/09/06 06:25:58;;;;;;;11.50;6.78;;;;;;;;;;5075280;28;20282;-52
2023/09/06 06:28:25;;;;;;;13.93;7.70;;;;;;;;;;5074877;28;20715;-55
2023/09/06 06:30:53;;;;;;;12.68;7.43;;;;;;;;;;5075101;28;20282;-50
2023/09/06 06:33:20;;;;;;;13.93;7.07;;;;;;;;;;5075100;28;20203;-52
2023/09/06 06:35:47;;;;;;;12.52;6.85;;;;;;;;;;5073647;28;20282;-52
2023/09/06 06:38:14;;;;;;;12.82;7.45;;;;;;;;;;5074839;28;20248;-51
2023/09/06 06:40:42;;;;;;;10.75;6.50;;;;;;;;;;5074980;28;20610;-54
2023/09/06 06:43:12;;;;;;;15.07;7.50;;;;;;;;;;5074933;28;20207;-50
2023/09/06 06:45:46;;;;;;;10.90;6.53;;;;;;;;;;5074691;28;20223;-54
2023/09/06 06:48:13;;;;;;;10.52;7.18;;;;;;;;;;5074553;28;20771;-52
2023/09/06 06:50:40;;;;;;;11.10;6.60;;;;;;;;;;5074484;28;20196;-54
2023/09/06 06:53:08;;;;;;;13.57;6.55;;;;;;;;;;5074517;28;20765;-57
2023/09/06 06:55:37;;;;;;;12.55;7.25;;;;;;;;;;5074310;28;20214;-50
2023/09/06 06:58:07;;;;;;;15.65;6.63;;;;;;;;;;5074525;28;20210;-52
2023/09/06 07:00:34;;;;;;;9.23;6.47;;;;;;;;;;5074287;28;20203;-52
2023/09/06 07:03:03;;;;;;;11.95;7.20;;;;;;;;;;5074353;28;20203;-54
2023/09/06 07:05:30;;;;;;;9.65;6.38;;;;;;;;;;5074370;28;20210;-51
2023/09/06 07:08:00;;;;;;;12.98;7.05;;;;;;;;;;5074283;28;20234;-50
2023/09/06 07:10:27;;;;;;;11.82;6.28;;;;;;;;;;5074268;28;20215;-53
2023/09/06 07:12:55;;;;;;;9.88;6.35;;;;;;;;;;5074109;28;20203;-49
2023/09/06 07:15:21;;;;;;;8.80;6.13;;;;;;;;;;5074674;28;20264;-52
2023/09/06 07:17:49;;;;;;;10.43;6.30;;;;;;;;;;5073867;28;20207;-51
2023/09/06 07:20:16;;;;;;;10.10;6.38;;;;;;;;;;5073478;28;20215;-52
2023/09/06 07:22:44;;;;;;;14.10;6.25;;;;;;;;;;5073874;28;20237;-50
2023/09/06 07:25:13;;;;;;;11.95;6.38;;;;;;;;;;5074442;28;20215;-52
2023/09/06 07:27:40;;;;;;;8.70;5.93;;;;;;;;;;5074010;28;20227;-54
2023/09/06 07:30:08;;;;;;;10.77;5.60;;;;;;;;;;5073809;28;20199;-54
2023/09/06 07:32:35;;;;;;;9.38;6.03;;;;;;;;;;5073751;28;20605;-53
2023/09/06 07:35:02;;;;;;;9.10;5.82;;;;;;;;;;5073903;28;20195;-50
2023/09/06 07:37:30;;;;;;;14.18;6.28;;;;;;;;;;5074073;28;20207;-50
2023/09/06 07:40:00;;;;;;;13.68;6.13;;;;;;;;;;5073957;28;20207;-57
2023/09/06 07:42:27;;;;;;;14.43;5.68;;;;;;;;;;5074053;28;20194;-58
2023/09/06 07:44:54;;;;;;;9.30;5.97;;;;;;;;;;5073561;28;20686;-55
2023/09/06 07:47:21;;;;;;;9.05;5.47;;;;;;;;;;5073576;28;20211;-50
2023/09/06 07:49:49;;;;;;;9.35;5.38;;;;;;;;;;5073668;28;20223;-54
2023/09/06 07:52:16;;;;;;;7.85;5.30;;;;;;;;;;5073684;28;20207;-51
2023/09/06 07:54:43;;;;;;;8.30;5.45;;;;;;;;;;5073391;28;20680;-54
2023/09/06 07:57:11;;;;;;;12.90;5.22;;;;;;;;;;5073629;28;20207;-49
2023/09/06 07:59:38;;;;;;;10.55;5.50;;;;;;;;;;5073725;28;20213;-51
2023/09/06 08:02:06;;;;;;;8.70;5.03;;;;;;;;;;5073856;28;20207;-56
2023/09/06 08:04:33;;;;;;;8.55;5.15;;;;;;;;;;5073598;28;20223;-52
2023/09/06 08:07:00;;;;;;;7.80;4.78;;;;;;;;;;5073342;28;20717;-54
2023/09/06 08:09:27;;;;;;;9.65;4.50;;;;;;;;;;5073192;28;20219;-51
2023/09/06 08:11:54;;;;;;;6.97;4.72;;;;;;;;;;5073570;28;20579;-50
2023/09/06 08:14:21;;;;;;;8.75;4.97;;;;;;;;;;5072268;28;20587;-53
2023/09/06 08:16:49;;;;;;;7.40;4.50;;;;;;;;;;5073494;28;20218;-50
2023/09/06 08:19:16;;;;;;;7.78;4.57;;;;;;;;;;5073500;28;20298;-52
2023/09/06 08:21:43;;;;;;;5.68;4.07;;;;;;;;;;5073468;28;20195;-55
2023/09/06 08:24:10;;;;;;;6.93;4.45;;;;;;;;;;5073413;28;20214;-53
2023/09/06 08:26:38;;;;;;;8.18;4.32;;;;;;;;;;5072987;28;20556;-50
2023/09/06 08:29:05;;;;;;;6.88;4.40;;;;;;;;;;5073345;28;20230;-52
2023/09/06 08:31:33;;;;;;;7.63;4.78;;;;;;;;;;5074949;28;20249;-55
2023/09/06 08:34:00;;;;;;;7.10;4.55;;;;;;;;;;5077114;28;20638;-54
2023/09/06 08:36:28;;;;;;;7.45;4.32;;;;;;;;;;5077491;28;20285;-53
2023/09/06 08:38:55;;;;;;;7.25;3.83;;;;;;;;;;5077363;28;20328;-51
2023/09/06 08:41:22;;;;;;;5.45;3.63;;;;;;;;;;5077258;28;20203;-51
2023/09/06 08:43:50;;;;;;;5.55;3.53;;;;;;;;;;5077221;28;20238;-51
2023/09/06 08:46:22;;;;;;;7.70;3.40;;;;;;;;;;5075763;28;20231;-52
2023/09/06 08:48:49;;;;;;;6.03;3.60;;;;;;;;;;5075764;28;20215;-54
2023/09/06 08:51:19;;;;;;;7.13;4.15;;;;;;;;;;5077085;28;20203;-55
2023/09/06 08:53:47;;;;;;;6.57;3.58;;;;;;;;;;5076821;28;20216;-52
2023/09/06 08:56:17;;;;;;;5.18;3.65;;;;;;;;;;5076622;28;20203;-53
2023/09/06 08:58:45;;;;;;;7.18;4.00;;;;;;;;;;5077102;28;20215;-54
2023/09/06 09:01:12;;;;;;;8.68;4.47;;;;;;;;;;5076871;28;20196;-51
2023/09/06 09:03:39;;;;;;;9.77;3.63;;;;;;;;;;5076631;28;20245;-50
2023/09/06 09:06:09;;;;;;;5.93;3.38;;;;;;;;;;5076540;28;20203;-51
2023/09/06 09:08:36;;;;;;;9.45;3.42;;;;;;;;;;5076938;28;20284;-54
2023/09/06 09:11:08;;;;;;;5.80;3.60;;;;;;;;;;5076480;28;20210;-51
2023/09/06 09:13:35;;;;;;;6.15;3.35;;;;;;;;;;5076131;28;20231;-55
2023/09/06 09:16:07;;;;;;;7.10;2.92;;;;;;;;;;5076651;28;20211;-53
2023/09/06 09:18:38;;;;;;;7.72;3.20;;;;;;;;;;5076204;28;20191;-56
2023/09/06 09:21:11;;;;;;;4.97;2.70;;;;;;;;;;5076642;28;20214;-51
2023/09/06 09:23:47;;;;;;;7.55;2.90;;;;;;;;;;5076578;28;20207;-53
2023/09/06 09:26:19;;;;;;;8.27;3.05;;;;;;;;;;5076277;28;20669;-54
2023/09/06 09:28:47;;;;;;;11.55;3.40;;;;;;;;;;5074963;28;20761;-51
2023/09/06 09:31:17;;;;;;;7.95;3.33;;;;;;;;;;5075961;28;20196;-54
2023/09/06 09:33:50;;;;;;;6.18;3.20;;;;;;;;;;5075960;28;20678;-55
2023/09/06 09:36:18;;;;;;;7.45;2.92;;;;;;;;;;5076476;28;20183;-54
2023/09/06 09:38:52;;;;;;;5.72;2.95;;;;;;;;;;5076253;28;20274;-51
2023/09/06 09:41:20;;;;;;;4.40;2.85;;;;;;;;;;5075973;28;20241;-56
2023/09/06 09:43:47;;;;;;;5.18;3.05;;;;;;;;;;5075183;28;20207;-52
2023/09/06 09:46:26;;;;;;;4.45;2.85;;;;;;;;;;5076016;28;20204;-50
2023/09/06 09:48:55;;;;;;;7.90;3.40;;;;;;;;;;5075721;28;20226;-54
2023/09/06 09:51:22;;;;;;;5.00;2.88;;;;;;;;;;5074524;28;20225;-51
2023/09/06 09:53:49;;;;;;;9.55;3.28;;;;;;;;;;5074517;28;20737;-54
2023/09/06 09:56:21;;;;;;;6.75;3.30;;;;;;;;;;5075684;28;20207;-55
2023/09/06 09:58:49;;;;;;;4.88;3.20;;;;;;;;;;5075953;28;20198;-55
2023/09/06 10:01:18;;;;;;;10.00;3.53;;;;;;;;;;5075989;28;20226;-53
2023/09/06 10:03:45;;;;;;;6.75;3.00;;;;;;;;;;5074268;28;20714;-54
2023/09/06 10:06:12;;;;;;;6.13;2.92;;;;;;;;;;5074487;28;20203;-55
2023/09/06 10:08:40;;;;;;;4.72;3.13;;;;;;;;;;5075221;28;20761;-54
2023/09/06 10:11:07;;;;;;;5.38;3.47;;;;;;;;;;5075562;28;20210;-55
2023/09/06 10:13:37;;;;;;;5.55;3.42;;;;;;;;;;5075380;28;20574;-54
2023/09/06 10:16:06;;;;;;;6.55;3.22;;;;;;;;;;5075814;28;20547;-53
2023/09/06 10:18:35;;;;;;;5.18;3.38;;;;;;;;;;5075200;28;20211;-50
2023/09/06 10:21:04;;;;;;;7.03;3.40;;;;;;;;;;5074144;28;20214;-50
2023/09/06 10:23:31;;;;;;;4.13;2.85;;;;;;;;;;5074206;28;20282;-51
2023/09/06 10:25:59;;;;;;;7.25;3.00;;;;;;;;;;5075226;28;20191;-51
2023/09/06 10:28:32;;;;;;;6.47;3.10;;;;;;;;;;5074000;28;20602;-53
2023/09/06 10:31:09;;;;;;;8.02;2.80;;;;;;;;;;5074934;28;20671;-53
2023/09/06 10:33:36;;;;;;;6.88;3.00;;;;;;;;;;5074887;28;20644;-51
2023/09/06 10:36:13;;;;;;;7.00;3.30;;;;;;;;;;5075118;28;20200;-55
2023/09/06 10:38:52;;;;;;;8.40;2.97;;;;;;;;;;5075007;28;20206;-49
2023/09/06 10:41:21;;;;;;;7.63;2.95;;;;;;;;;;5075109;28;20199;-49
2023/09/06 10:43:54;;;;;;;8.80;3.17;;;;;;;;;;5075241;28;20200;-52
2023/09/06 10:46:29;;;;;;;5.80;2.80;;;;;;;;;;5074975;28;20187;-53
2023/09/06 10:49:19;;;;;;;5.60;2.53;;;;;;;;;;5074587;28;20215;-50
2023/09/06 10:51:56;;;;;;;5.53;2.80;;;;;;;;;;5066393;28;20207;-54
2023/09/06 10:54:24;;;;;;;4.65;2.80;;;;;;;;;;5074433;28;20189;-52
2023/09/06 10:56:59;;;;;;;8.98;2.97;;;;;;;;;;5074718;28;20210;-50
2023/09/06 10:59:28;;;;;;;5.78;3.03;;;;;;;;;;5073528;28;20199;-55
2023/09/06 11:02:15;;;;;;;4.88;3.00;;;;;;;;;;5074474;28;20203;-52
2023/09/06 11:04:45;;;;;;;3.92;2.58;;;;;;;;;;5074370;28;20203;-50
2023/09/06 11:07:13;;;;;;;5.30;2.95;;;;;;;;;;5074521;28;20207;-52
2023/09/06 11:09:50;;;;;;;5.38;2.58;;;;;;;;;;5074509;28;20234;-52
2023/09/06 11:12:18;;;;;;;4.78;2.92;;;;;;;;;;5074785;28;20207;-56
2023/09/06 11:14:53;;;;;;;5.30;2.67;;;;;;;;;;5074448;28;20572;-52
2023/09/06 11:17:22;;;;;;;5.13;2.80;;;;;;;;;;5074293;28;20202;-53
2023/09/06 11:19:50;;;;;;;5.18;2.70;;;;;;;;;;5073960;28;20598;-50
2023/09/06 11:22:17;;;;;;;3.90;2.28;;;;;;;;;;5074167;28;20203;-49
2023/09/06 11:24:44;;;;;;;7.22;2.20;;;;;;;;;;5073882;28;20195;-51
2023/09/06 11:27:33;;;;;;;5.13;2.63;;;;;;;;;;5074313;28;20214;-56
2023/09/06 11:30:26;;;;;;;4.28;2.38;;;;;;;;;;5073685;28;20226;-49
2023/09/06 11:32:55;;;;;;;6.13;3.05;;;;;;;;;;5074036;28;20267;-54
2023/09/06 11:35:27;;;;;;;5.03;2.42;;;;;;;;;;5074134;28;20203;-58
2023/09/06 11:37:56;;;;;;;4.40;2.22;;;;;;;;;;5073788;28;20199;-52
2023/09/06 11:40:27;;;;;;;4.65;2.20;;;;;;;;;;5072498;28;20203;-52
2023/09/06 11:42:58;;;;;;;4.45;2.40;;;;;;;;;;5074014;28;20686;-53
2023/09/06 11:45:26;;;;;;;4.97;2.35;;;;;;;;;;5073763;28;20203;-51
2023/09/06 11:47:56;;;;;;;4.15;2.40;;;;;;;;;;5073885;28;20210;-52
2023/09/06 11:50:23;;;;;;;6.65;2.63;;;;;;;;;;5073400;28;20714;-49
2023/09/06 11:52:56;;;;;;;3.03;2.03;;;;;;;;;;5072296;28;20251;-54
2023/09/06 11:55:28;;;;;;;5.68;2.33;;;;;;;;;;5073976;28;20245;-54
2023/09/06 11:57:57;;;;;;;4.45;2.08;;;;;;;;;;5073494;28;20663;-54
2023/09/06 12:00:38;;;;;;;7.38;2.63;;;;;;;;;;5073897;28;20213;-53
2023/09/06 12:03:08;;;;;;;5.22;2.45;;;;;;;;;;5073688;28;20192;-53
2023/09/06 12:05:46;;;;;;;4.00;2.28;;;;;;;;;;5072937;28;20192;-53
2023/09/06 12:08:22;;;;;;;4.80;2.42;;;;;;;;;;5073451;28;20264;-52
2023/09/06 12:10:54;;;;;;;4.28;2.60;;;;;;;;;;5073444;28;20318;-53
2023/09/06 12:13:27;;;;;;;4.13;2.47;;;;;;;;;;5073097;28;20199;-58
2023/09/06 12:15:58;;;;;;;4.50;2.90;;;;;;;;;;5073273;28;20603;-52
2023/09/06 12:18:28;;;;;;;4.60;2.20;;;;;;;;;;5073275;28;20234;-57
2023/09/06 12:20:57;;;;;;;3.85;2.10;;;;;;;;;;5073329;28;20214;-52
2023/09/06 12:23:28;;;;;;;5.80;2.13;;;;;;;;;;5073479;28;20214;-56
2023/09/06 12:25:57;;;;;;;5.50;2.28;;;;;;;;;;5073578;28;20602;-53
2023/09/06 12:28:26;;;;;;;3.10;2.20;;;;;;;;;;5073173;28;20268;-53
2023/09/06 12:31:01;;;;;;;4.35;2.30;;;;;;;;;;5069693;28;20221;-57
2023/09/06 12:33:36;;;;;;;6.18;2.70;;;;;;;;;;5063759;28;20211;-56
2023/09/06 12:36:05;;;;;;;4.03;2.45;;;;;;;;;;5054516;28;20226;-54
2023/09/06 12:38:32;;;;;;;9.80;2.25;;;;;;;;;;5060010;28;20223;-51
2023/09/06 12:41:00;;;;;;;3.50;2.00;;;;;;;;;;5052278;28;20231;-51
2023/09/06 12:43:30;;;;;;;3.80;2.42;;;;;;;;;;5055112;28;20229;-55
2023/09/06 12:45:57;;;;;;;2.90;1.95;;;;;;;;;;5060585;28;20310;-53
2023/09/06 12:48:26;;;;;;;5.85;2.30;;;;;;;;;;5064273;28;20239;-50
2023/09/06 12:50:53;;;;;;;4.40;2.15;;;;;;;;;;5066681;28;20293;-52
2023/09/06 12:53:24;;;;;;;3.05;2.10;;;;;;;;;;5071203;28;20230;-55
2023/09/06 12:55:51;;;;;;;4.65;2.10;;;;;;;;;;5072192;28;20224;-52
2023/09/06 12:58:18;;;;;;;2.67;1.98;;;;;;;;;;5071990;28;20302;-54
2023/09/06 13:00:46;;;;;;;2.47;1.90;;;;;;;;;;5072100;28;20695;-55
2023/09/06 13:03:17;;;;;;;5.13;2.17;;;;;;;;;;5072013;28;20223;-53
2023/09/06 13:05:45;;;;;;;3.85;1.75;;;;;;;;;;5071551;28;20306;-56
2023/09/06 13:08:13;;;;;;;3.85;2.08;;;;;;;;;;5072129;28;20231;-56
2023/09/06 13:10:40;;;;;;;7.40;2.53;;;;;;;;;;5072167;28;20266;-58
2023/09/06 13:13:08;;;;;;;4.32;2.03;;;;;;;;;;5071990;28;20227;-53
2023/09/06 13:15:34;;;;;;;4.70;2.28;;;;;;;;;;5072004;28;20600;-51
2023/09/06 13:18:03;;;;;;;3.30;2.10;;;;;;;;;;5072849;28;20230;-50
2023/09/06 13:20:30;;;;;;;3.90;1.65;;;;;;;;;;5074747;28;20718;-53
2023/09/06 13:22:57;;;;;;;5.28;2.17;;;;;;;;;;5075630;28;20223;-52
2023/09/06 13:25:24;;;;;;;6.85;2.33;;;;;;;;;;5075420;28;20334;-53
2023/09/06 13:27:52;;;;;;;4.22;2.50;;;;;;;;;;5075586;28;20226;-55
2023/09/06 13:30:19;;;;;;;2.47;1.65;;;;;;;;;;5075234;28;20243;-52
2023/09/06 13:32:46;;;;;;;7.47;2.20;;;;;;;;;;5075502;28;20234;-54
2023/09/06 13:35:13;;;;;;;2.55;1.60;;;;;;;;;;5075063;28;20222;-55
2023/09/06 13:37:41;;;;;;;6.05;1.85;;;;;;;;;;5075444;28;20586;-56
2023/09/06 13:40:08;;;;;;;5.28;2.25;;;;;;;;;;5075223;28;20640;-56
2023/09/06 13:42:36;;;;;;;3.65;1.95;;;;;;;;;;5075597;28;20223;-54
2023/09/06 13:45:04;;;;;;;5.88;1.80;;;;;;;;;;5075211;28;20227;-55
2023/09/06 13:47:32;;;;;;;7.47;2.33;;;;;;;;;;5075158;28;20321;-54
2023/09/06 13:49:59;;;;;;;4.40;1.92;;;;;;;;;;5074615;28;20696;-54
2023/09/06 13:52:26;;;;;;;7.05;1.98;;;;;;;;;;5074756;28;20230;-54
2023/09/06 13:54:53;;;;;;;3.20;1.98;;;;;;;;;;5075368;28;20227;-53
2023/09/06 13:57:21;;;;;;;2.35;1.50;;;;;;;;;;5074878;28;20231;-57
2023/09/06 13:59:51;;;;;;;3.90;1.92;;;;;;;;;;5075043;28;20650;-56
2023/09/06 14:02:18;;;;;;;3.65;1.70;;;;;;;;;;5074608;28;20579;-54
2023/09/06 14:04:47;;;;;;;2.28;1.60;;;;;;;;;;5074333;28;20254;-57
2023/09/06 14:07:14;;;;;;;2.97;1.90;;;;;;;;;;5074761;28;20232;-55
2023/09/06 14:09:41;;;;;;;6.18;2.08;;;;;;;;;;5074723;28;20231;-56
2023/09/06 14:12:09;;;;;;;4.43;2.08;;;;;;;;;;5074650;28;20234;-56
2023/09/06 14:14:36;;;;;;;4.72;1.80;;;;;;;;;;5074636;28;20326;-56
2023/09/06 14:17:03;;;;;;;3.60;1.80;;;;;;;;;;5074520;28;20219;-54
2023/09/06 14:19:31;;;;;;;5.80;1.73;;;;;;;;;;5074020;28;20211;-56
2023/09/06 14:21:59;;;;;;;3.03;1.75;;;;;;;;;;5074444;28;20231;-61
2023/09/06 14:24:26;;;;;;;19.45;8.40;;;;;;;;;;5074671;28;20227;-58
2023/09/06 14:26:53;;;;;;;4.90;3.38;;;;;;;;;;5074323;28;20226;-55
2023/09/06 14:29:20;;;;;;;4.57;2.33;;;;;;;;;;5073780;28;20699;-55
2023/09/06 14:31:47;;;;;;;5.53;1.98;;;;;;;;;;5074285;28;20231;-56
2023/09/06 14:34:15;;;;;;;5.13;1.95;;;;;;;;;;5071419;28;20215;-57
2023/09/06 14:36:42;;;;;;;3.88;1.92;;;;;;;;;;5066041;28;20527;-54
2023/09/06 14:39:10;;;;;;;4.43;2.22;;;;;;;;;;5070213;28;20230;-58
2023/09/06 14:41:37;;;;;;;3.60;1.77;;;;;;;;;;5074004;28;20216;-55
2023/09/06 14:44:04;;;;;;;4.55;1.90;;;;;;;;;;5092042;28;20336;-58
2023/09/06 14:46:32;;;;;;;4.50;2.00;;;;;;;;;;5091422;28;20244;-52
2023/09/06 14:48:59;;;;;;;4.15;2.35;;;;;;;;;;5078966;28;20227;-56
2023/09/06 14:51:26;;;;;;;6.40;2.20;;;;;;;;;;5078150;28;20744;-58